createdAt,value
2017-10-04T00:00:36.104Z,79.3
2017-10-04T00:01:57.589Z,79.4
2017-10-04T00:02:58.993Z,79.7
2017-10-04T00:04:20.483Z,79.8
2017-10-04T00:05:21.881Z,79.7
2017-10-04T00:06:43.393Z,79.7
2017-10-04T00:07:44.792Z,79.8
2017-10-04T00:09:06.283Z,80.0
2017-10-04T00:10:07.690Z,80.1
2017-10-04T00:11:29.194Z,80.1
2017-10-04T00:12:30.593Z,79.8
2017-10-04T00:13:52.082Z,79.9
2017-10-04T00:14:53.484Z,80.2
2017-10-04T00:16:14.997Z,79.9
2017-10-04T00:17:16.401Z,80.0
2017-10-04T00:18:37.885Z,79.8
2017-10-04T00:19:39.286Z,80.0
2017-10-04T00:21:00.797Z,80.1
2017-10-04T00:22:02.196Z,80.0
2017-10-04T00:23:23.685Z,79.9
2017-10-04T00:24:25.085Z,79.8
2017-10-04T00:25:46.613Z,80.5
2017-10-04T00:26:48.015Z,80.2
2017-10-04T00:28:09.506Z,81.0
2017-10-04T00:29:10.910Z,80.5
2017-10-04T00:30:32.393Z,80.6
2017-10-04T00:31:33.799Z,80.7
2017-10-04T00:32:55.304Z,80.5
2017-10-04T00:33:56.707Z,80.7
2017-10-04T00:35:18.193Z,81.0
2017-10-04T00:36:19.594Z,81.0
2017-10-04T00:37:41.105Z,80.7
2017-10-04T00:38:42.510Z,81.0
2017-10-04T00:40:04.000Z,80.9
2017-10-04T00:41:05.393Z,80.9
2017-10-04T00:42:26.904Z,80.7
2017-10-04T00:43:28.305Z,80.8
2017-10-04T00:44:49.792Z,80.9
2017-10-04T00:45:51.191Z,80.8
2017-10-04T00:47:12.702Z,81.0
2017-10-04T00:48:14.106Z,81.0
2017-10-04T00:49:35.594Z,81.8
2017-10-04T00:50:36.994Z,81.4
2017-10-04T00:51:58.684Z,81.8
2017-10-04T00:53:00.085Z,81.6
2017-10-04T00:54:21.577Z,82.0
2017-10-04T00:55:22.971Z,81.9
2017-10-04T00:56:44.458Z,81.5
2017-10-04T00:57:45.860Z,81.5
2017-10-04T00:59:07.371Z,81.7
2017-10-04T01:00:08.773Z,81.5
2017-10-04T01:01:30.257Z,81.1
2017-10-04T01:02:31.656Z,81.0
2017-10-04T01:03:53.168Z,81.2
2017-10-04T01:04:54.568Z,80.9
2017-10-04T01:06:16.055Z,81.0
2017-10-04T01:07:17.454Z,81.7
2017-10-04T01:08:38.964Z,81.4
2017-10-04T01:09:40.367Z,81.1
2017-10-04T01:11:01.855Z,81.0
2017-10-04T01:12:03.256Z,81.5
2017-10-04T01:13:24.765Z,81.3
2017-10-04T01:14:26.164Z,81.5
2017-10-04T01:15:47.654Z,81.7
2017-10-04T01:16:49.055Z,81.6
2017-10-04T01:18:10.576Z,81.5
2017-10-04T01:19:11.976Z,81.1
2017-10-04T01:20:33.469Z,81.3
2017-10-04T01:21:34.865Z,81.6
2017-10-04T01:22:56.355Z,81.6
2017-10-04T01:23:57.754Z,81.3
2017-10-04T01:25:19.263Z,81.3
2017-10-04T01:26:20.665Z,81.7
2017-10-04T01:27:42.154Z,81.4
2017-10-04T01:28:43.553Z,81.4
2017-10-04T01:30:05.063Z,81.5
2017-10-04T01:31:06.467Z,81.2
2017-10-04T01:32:27.954Z,81.5
2017-10-04T01:33:29.354Z,81.6
2017-10-04T01:34:50.866Z,81.5
2017-10-04T01:35:52.268Z,81.3
2017-10-04T01:37:13.755Z,81.5
2017-10-04T01:38:15.154Z,80.9
2017-10-04T01:39:36.665Z,80.8
2017-10-04T01:40:38.067Z,81.0
2017-10-04T01:41:59.556Z,80.7
2017-10-04T01:43:00.957Z,81.4
2017-10-04T01:44:22.471Z,81.3
2017-10-04T01:45:23.873Z,81.2
2017-10-04T01:46:45.360Z,81.3
2017-10-04T01:47:46.760Z,81.7
2017-10-04T01:49:08.270Z,81.4
2017-10-04T01:50:09.673Z,81.5
2017-10-04T01:51:31.158Z,81.0
2017-10-04T01:52:32.560Z,80.8
2017-10-04T01:53:54.073Z,80.6
2017-10-04T01:54:55.481Z,80.4
2017-10-04T01:56:16.966Z,80.9
2017-10-04T01:57:18.371Z,80.9
2017-10-04T01:58:39.861Z,80.8
2017-10-04T01:59:41.261Z,81.1
2017-10-04T02:01:02.771Z,80.9
2017-10-04T02:02:04.170Z,80.7
2017-10-04T02:03:25.657Z,81.1
2017-10-04T02:04:27.058Z,80.9
2017-10-04T02:05:48.564Z,81.2
2017-10-04T02:06:49.967Z,81.0
2017-10-04T02:08:11.459Z,80.9
2017-10-04T02:09:12.861Z,80.7
2017-10-04T02:10:34.367Z,80.8
2017-10-04T02:11:35.769Z,80.4
2017-10-04T02:12:57.255Z,80.9
2017-10-04T02:13:58.655Z,81.4
2017-10-04T02:15:20.163Z,81.4
2017-10-04T02:16:21.566Z,81.3
2017-10-04T02:17:43.052Z,81.3
2017-10-04T02:18:44.453Z,81.0
2017-10-04T02:20:05.968Z,81.0
2017-10-04T02:21:07.370Z,81.0
2017-10-04T02:22:28.857Z,81.0
2017-10-04T02:23:30.256Z,81.0
2017-10-04T02:24:51.746Z,81.3
2017-10-04T02:25:53.145Z,81.0
2017-10-04T02:27:14.651Z,80.9
2017-10-04T02:28:16.065Z,81.0
2017-10-04T02:29:37.551Z,81.2
2017-10-04T02:30:38.949Z,81.3
2017-10-04T02:32:00.461Z,80.4
2017-10-04T02:33:01.862Z,81.1
2017-10-04T02:34:23.349Z,80.9
2017-10-04T02:35:24.748Z,80.7
2017-10-04T02:36:46.257Z,80.7
2017-10-04T02:37:47.659Z,80.4
2017-10-04T02:39:09.153Z,81.0
2017-10-04T02:40:10.548Z,80.7
2017-10-04T02:41:32.072Z,80.6
2017-10-04T02:42:33.475Z,80.7
2017-10-04T02:43:54.962Z,80.4
2017-10-04T02:44:56.386Z,80.9
2017-10-04T02:46:17.854Z,80.9
2017-10-04T02:47:19.254Z,81.0
2017-10-04T02:48:40.764Z,80.7
2017-10-04T02:49:42.167Z,80.9
2017-10-04T02:51:03.655Z,80.7
2017-10-04T02:52:05.054Z,80.9
2017-10-04T02:53:26.562Z,80.7
2017-10-04T02:54:27.963Z,80.8
2017-10-04T02:55:49.450Z,80.5
2017-10-04T02:56:50.853Z,80.4
2017-10-04T02:58:12.358Z,80.5
2017-10-04T02:59:13.759Z,80.7
2017-10-04T03:00:35.248Z,80.5
2017-10-04T03:01:36.650Z,80.8
2017-10-04T03:02:58.159Z,80.3
2017-10-04T03:03:59.560Z,80.3
2017-10-04T03:05:21.047Z,80.2
2017-10-04T03:06:22.449Z,80.2
2017-10-04T03:07:43.935Z,80.0
2017-10-04T03:08:45.339Z,80.3
2017-10-04T03:10:06.856Z,80.0
2017-10-04T03:11:08.258Z,80.0
2017-10-04T03:12:29.741Z,80.2
2017-10-04T03:13:31.143Z,80.3
2017-10-04T03:14:52.655Z,80.3
2017-10-04T03:15:54.054Z,80.2
2017-10-04T03:17:15.541Z,80.0
2017-10-04T03:18:16.943Z,80.2
2017-10-04T03:19:38.453Z,80.2
2017-10-04T03:20:39.857Z,79.7
2017-10-04T03:22:01.343Z,79.8
2017-10-04T03:23:02.745Z,79.9
2017-10-04T03:24:24.258Z,79.8
2017-10-04T03:25:25.661Z,79.9
2017-10-04T03:26:47.143Z,80.1
2017-10-04T03:27:48.546Z,80.5
2017-10-04T03:29:10.054Z,80.5
2017-10-04T03:30:11.461Z,80.1
2017-10-04T03:31:32.938Z,80.0
2017-10-04T03:32:34.337Z,79.7
2017-10-04T03:33:55.848Z,79.9
2017-10-04T03:34:57.252Z,79.7
2017-10-04T03:36:18.734Z,79.9
2017-10-04T03:37:20.134Z,79.7
2017-10-04T03:38:41.638Z,79.8
2017-10-04T03:39:43.038Z,79.8
2017-10-04T03:41:04.544Z,79.4
2017-10-04T03:42:05.950Z,79.8
2017-10-04T03:43:27.437Z,79.7
2017-10-04T03:44:28.838Z,79.7
2017-10-04T03:45:50.344Z,79.8
2017-10-04T03:46:51.750Z,79.7
2017-10-04T03:48:13.235Z,79.8
2017-10-04T03:49:14.635Z,80.1
2017-10-04T03:50:36.144Z,79.9
2017-10-04T03:51:37.545Z,79.5
2017-10-04T03:52:59.030Z,79.7
2017-10-04T03:54:00.433Z,79.8
2017-10-04T03:55:21.943Z,79.7
2017-10-04T03:56:23.347Z,79.8
2017-10-04T03:57:44.842Z,79.9
2017-10-04T03:58:46.240Z,79.7
2017-10-04T04:00:07.729Z,79.5
2017-10-04T04:01:09.129Z,79.3
2017-10-04T04:02:30.642Z,79.4
2017-10-04T04:03:32.044Z,79.3
2017-10-04T04:04:53.529Z,80.0
2017-10-04T04:05:54.930Z,79.8
2017-10-04T04:07:16.444Z,80.0
2017-10-04T04:08:17.848Z,80.4
2017-10-04T04:09:39.334Z,80.3
2017-10-04T04:10:40.739Z,79.7
2017-10-04T04:12:02.255Z,79.7
2017-10-04T04:13:03.656Z,80.0
2017-10-04T04:14:25.144Z,80.4
2017-10-04T04:15:26.543Z,80.2
2017-10-04T04:16:48.069Z,79.5
2017-10-04T04:17:49.470Z,79.5
2017-10-04T04:19:10.956Z,79.5
2017-10-04T04:20:12.356Z,79.4
2017-10-04T04:21:33.845Z,78.8
2017-10-04T04:22:35.246Z,78.9
2017-10-04T04:23:56.750Z,79.1
2017-10-04T04:24:58.152Z,78.9
2017-10-04T04:26:19.635Z,78.9
2017-10-04T04:27:21.036Z,79.0
2017-10-04T04:28:42.540Z,79.2
2017-10-04T04:29:43.941Z,79.2
2017-10-04T04:31:05.432Z,79.0
2017-10-04T04:32:06.830Z,79.2
2017-10-04T04:33:28.491Z,79.2
2017-10-04T04:34:30.023Z,79.0
2017-10-04T04:35:51.676Z,79.2
2017-10-04T04:36:53.077Z,79.1
2017-10-04T04:38:14.589Z,79.3
2017-10-04T04:39:15.992Z,79.5
2017-10-04T04:40:37.478Z,79.1
2017-10-04T04:41:38.877Z,79.2
2017-10-04T04:43:00.399Z,80.0
2017-10-04T04:44:01.800Z,80.0
2017-10-04T04:45:23.290Z,79.9
2017-10-04T04:46:24.689Z,79.8
2017-10-04T04:47:46.184Z,79.3
2017-10-04T04:48:47.587Z,79.3
2017-10-04T04:50:09.095Z,79.4
2017-10-04T04:51:10.497Z,79.2
2017-10-04T04:52:31.993Z,79.2
2017-10-04T04:53:33.392Z,79.9
2017-10-04T04:54:54.901Z,79.5
2017-10-04T04:55:56.305Z,79.2
2017-10-04T04:57:17.792Z,79.3
2017-10-04T04:58:19.191Z,79.2
2017-10-04T04:59:40.701Z,79.0
2017-10-04T05:00:42.103Z,78.9
2017-10-04T05:02:03.594Z,79.0
2017-10-04T05:03:04.994Z,78.9
2017-10-04T05:04:26.505Z,79.3
2017-10-04T05:05:27.903Z,79.2
2017-10-04T05:06:49.389Z,78.9
2017-10-04T05:07:50.789Z,78.9
2017-10-04T05:09:12.298Z,79.1
2017-10-04T05:10:13.702Z,79.2
2017-10-04T05:11:35.193Z,79.5
2017-10-04T05:12:36.595Z,79.1
2017-10-04T05:13:58.125Z,79.3
2017-10-04T05:14:59.525Z,79.3
2017-10-04T05:16:21.015Z,79.0
2017-10-04T05:17:22.419Z,79.4
2017-10-04T05:18:43.911Z,79.1
2017-10-04T05:19:45.313Z,79.0
2017-10-04T05:21:06.823Z,79.1
2017-10-04T05:22:08.225Z,79.4
2017-10-04T05:23:29.714Z,79.3
2017-10-04T05:24:31.113Z,79.9
2017-10-04T05:25:52.627Z,79.8
2017-10-04T05:26:54.027Z,79.6
2017-10-04T05:28:15.516Z,79.9
2017-10-04T05:29:16.915Z,79.8
2017-10-04T05:30:38.423Z,79.7
2017-10-04T05:31:39.828Z,79.8
2017-10-04T05:33:01.322Z,79.6
2017-10-04T05:34:02.741Z,79.8
2017-10-04T05:35:24.242Z,79.9
2017-10-04T05:36:25.646Z,79.9
2017-10-04T05:37:47.137Z,79.7
2017-10-04T05:38:48.538Z,80.5
2017-10-04T05:40:10.052Z,80.1
2017-10-04T05:41:11.457Z,80.2
2017-10-04T05:42:32.952Z,80.3
2017-10-04T05:43:34.357Z,80.1
2017-10-04T05:44:55.845Z,80.4
2017-10-04T05:45:57.247Z,80.2
2017-10-04T05:47:18.758Z,80.1
2017-10-04T05:48:20.161Z,80.1
2017-10-04T05:49:41.648Z,80.5
2017-10-04T05:50:43.052Z,80.3
2017-10-04T05:52:04.564Z,80.1
2017-10-04T05:53:05.969Z,80.0
2017-10-04T05:54:27.458Z,80.1
2017-10-04T05:55:28.861Z,80.6
2017-10-04T05:56:50.374Z,80.6
2017-10-04T05:57:51.781Z,80.0
2017-10-04T05:59:13.276Z,80.2
2017-10-04T06:00:14.680Z,79.9
2017-10-04T06:01:36.191Z,80.6
2017-10-04T06:02:37.596Z,80.3
2017-10-04T06:03:59.083Z,80.0
2017-10-04T06:05:00.485Z,80.4
2017-10-04T06:06:21.994Z,80.9
2017-10-04T06:07:23.400Z,80.3
2017-10-04T06:08:44.894Z,80.5
2017-10-04T06:09:46.298Z,80.5
2017-10-04T06:11:07.812Z,80.2
2017-10-04T06:12:09.216Z,80.3
2017-10-04T06:13:30.704Z,80.9
2017-10-04T06:14:32.112Z,80.3
2017-10-04T06:15:53.602Z,80.1
2017-10-04T06:16:55.005Z,80.2
2017-10-04T06:18:16.518Z,80.2
2017-10-04T06:19:17.925Z,79.8
2017-10-04T06:20:39.416Z,80.0
2017-10-04T06:21:40.816Z,79.0
2017-10-04T06:23:02.330Z,78.9
2017-10-04T06:24:03.738Z,78.9
2017-10-04T06:25:25.225Z,79.0
2017-10-04T06:26:26.630Z,79.0
2017-10-04T06:27:48.143Z,79.2
2017-10-04T06:28:49.547Z,78.9
2017-10-04T06:30:11.042Z,78.9
2017-10-04T06:31:12.447Z,79.1
2017-10-04T06:32:34.193Z,79.3
2017-10-04T06:33:35.599Z,78.8
2017-10-04T06:34:57.095Z,78.9
2017-10-04T06:35:58.496Z,78.9
2017-10-04T06:37:20.021Z,78.7
2017-10-04T06:38:21.426Z,78.7
2017-10-04T06:39:42.927Z,78.2
2017-10-04T06:40:44.333Z,78.2
2017-10-04T06:42:05.827Z,78.5
2017-10-04T06:43:07.231Z,77.7
2017-10-04T06:44:28.746Z,77.8
2017-10-04T06:45:30.154Z,77.7
2017-10-04T06:46:51.647Z,78.3
2017-10-04T06:47:53.052Z,77.8
2017-10-04T06:49:14.568Z,77.5
2017-10-04T06:50:15.975Z,77.6
2017-10-04T06:51:37.468Z,77.3
2017-10-04T06:52:38.875Z,77.6
2017-10-04T06:54:00.392Z,77.2
2017-10-04T06:55:01.799Z,77.2
2017-10-04T06:56:23.294Z,77.1
2017-10-04T06:57:24.699Z,76.9
2017-10-04T06:58:46.210Z,76.7
2017-10-04T06:59:47.620Z,76.9
2017-10-04T07:01:09.113Z,76.8
2017-10-04T07:02:10.519Z,76.6
2017-10-04T07:03:32.031Z,76.4
2017-10-04T07:04:33.436Z,76.5
2017-10-04T07:05:54.927Z,76.3
2017-10-04T07:06:56.334Z,76.1
2017-10-04T07:08:17.829Z,76.1
2017-10-04T07:09:19.235Z,76.3
2017-10-04T07:10:40.749Z,76.4
2017-10-04T07:11:42.157Z,75.4
2017-10-04T07:13:03.651Z,75.0
2017-10-04T07:14:05.061Z,75.4
2017-10-04T07:15:26.576Z,74.7
2017-10-04T07:16:27.984Z,74.7
2017-10-04T07:17:49.475Z,75.0
2017-10-04T07:18:50.882Z,74.2
2017-10-04T07:20:12.399Z,74.1
2017-10-04T07:21:13.810Z,73.7
2017-10-04T07:22:35.301Z,74.2
2017-10-04T07:23:36.707Z,74.5
2017-10-04T07:24:58.220Z,74.2
2017-10-04T07:25:59.629Z,73.7
2017-10-04T07:27:21.130Z,74.1
2017-10-04T07:28:22.538Z,74.1
2017-10-04T07:29:44.030Z,73.5
2017-10-04T07:30:45.438Z,74.0
2017-10-04T07:32:06.953Z,73.9
2017-10-04T07:33:08.360Z,74.1
2017-10-04T07:34:29.855Z,73.7
2017-10-04T07:35:31.262Z,73.6
2017-10-04T07:36:52.775Z,73.7
2017-10-04T07:37:54.183Z,73.8
2017-10-04T07:39:15.678Z,73.8
2017-10-04T07:40:17.086Z,73.6
2017-10-04T07:41:38.603Z,73.8
2017-10-04T07:42:40.012Z,73.4
2017-10-04T07:44:01.505Z,73.1
2017-10-04T07:45:02.914Z,73.5
2017-10-04T07:46:24.432Z,73.2
2017-10-04T07:47:25.839Z,73.3
2017-10-04T07:48:47.334Z,73.1
2017-10-04T07:49:48.741Z,72.5
2017-10-04T07:51:10.261Z,72.2
2017-10-04T07:52:11.670Z,72.1
2017-10-04T07:53:33.170Z,71.9
2017-10-04T07:54:34.573Z,72.1
2017-10-04T07:55:56.071Z,72.0
2017-10-04T07:56:57.476Z,71.8
2017-10-04T07:58:18.990Z,73.0
2017-10-04T07:59:20.398Z,73.3
2017-10-04T08:00:41.898Z,73.0
2017-10-04T08:01:43.304Z,72.4
2017-10-04T08:03:04.818Z,71.9
2017-10-04T08:04:06.228Z,71.3
2017-10-04T08:05:27.718Z,72.3
2017-10-04T08:06:29.127Z,71.7
2017-10-04T08:07:50.641Z,71.2
2017-10-04T08:08:52.049Z,71.0
2017-10-04T08:10:13.548Z,71.3
2017-10-04T08:11:14.954Z,71.8
2017-10-04T08:12:36.470Z,71.3
2017-10-04T08:13:37.878Z,72.2
2017-10-04T08:14:59.371Z,71.3
2017-10-04T08:16:00.776Z,71.9
2017-10-04T08:17:22.299Z,72.4
2017-10-04T08:18:23.707Z,71.9
2017-10-04T08:19:45.201Z,72.3
2017-10-04T08:20:46.608Z,72.0
2017-10-04T08:22:08.125Z,71.4
2017-10-04T08:23:09.529Z,71.4
2017-10-04T08:24:31.025Z,71.6
2017-10-04T08:25:32.435Z,71.4
2017-10-04T08:26:53.928Z,71.5
2017-10-04T08:27:55.336Z,71.5
2017-10-04T08:29:16.854Z,71.2
2017-10-04T08:30:18.272Z,71.0
2017-10-04T08:31:39.772Z,70.8
2017-10-04T08:32:41.178Z,70.5
2017-10-04T08:34:02.691Z,70.3
2017-10-04T08:35:04.101Z,70.9
2017-10-04T08:36:25.597Z,71.1
2017-10-04T08:37:27.006Z,71.0
2017-10-04T08:38:48.520Z,70.6
2017-10-04T08:39:49.929Z,70.4
2017-10-04T08:41:11.425Z,69.9
2017-10-04T08:42:12.835Z,70.0
2017-10-04T08:43:34.517Z,71.0
2017-10-04T08:44:35.927Z,70.4
2017-10-04T08:45:57.424Z,70.3
2017-10-04T08:46:58.832Z,70.5
2017-10-04T08:48:20.482Z,70.2
2017-10-04T08:49:21.899Z,71.0
2017-10-04T08:50:43.406Z,70.7
2017-10-04T08:51:44.816Z,70.5
2017-10-04T08:53:06.315Z,70.4
2017-10-04T08:54:07.722Z,70.0
2017-10-04T08:55:29.240Z,70.7
2017-10-04T08:56:30.650Z,70.3
2017-10-04T08:57:52.146Z,68.9
2017-10-04T08:58:53.552Z,68.5
2017-10-04T09:00:15.073Z,67.6
2017-10-04T09:01:16.482Z,68.6
2017-10-04T09:02:37.977Z,68.4
2017-10-04T09:03:39.386Z,67.8
2017-10-04T09:05:00.904Z,68.4
2017-10-04T09:06:02.313Z,68.1
2017-10-04T09:07:23.808Z,68.3
2017-10-04T09:08:25.257Z,68.4
2017-10-04T09:09:46.774Z,68.8
2017-10-04T09:10:48.185Z,68.2
2017-10-04T09:12:09.680Z,67.9
2017-10-04T09:13:11.160Z,67.0
2017-10-04T09:14:32.657Z,66.9
2017-10-04T09:15:34.064Z,67.2
2017-10-04T09:16:55.583Z,66.9
2017-10-04T09:17:56.993Z,67.2
2017-10-04T09:19:18.491Z,66.9
2017-10-04T09:20:19.900Z,67.0
2017-10-04T09:21:41.419Z,67.6
2017-10-04T09:22:42.829Z,67.2
2017-10-04T09:24:04.322Z,66.9
2017-10-04T09:25:05.732Z,66.8
2017-10-04T09:26:27.252Z,66.8
2017-10-04T09:27:28.665Z,66.6
2017-10-04T09:28:50.159Z,67.0
2017-10-04T09:29:51.568Z,67.2
2017-10-04T09:31:13.085Z,67.5
2017-10-04T09:32:14.495Z,66.5
2017-10-04T09:33:35.992Z,67.2
2017-10-04T09:34:37.403Z,68.0
2017-10-04T09:35:58.920Z,68.6
2017-10-04T09:37:00.329Z,68.7
2017-10-04T09:38:21.827Z,69.5
2017-10-04T09:39:23.235Z,68.1
2017-10-04T09:40:44.733Z,67.4
2017-10-04T09:41:46.142Z,67.6
2017-10-04T09:43:07.666Z,67.3
2017-10-04T09:44:09.068Z,67.7
2017-10-04T09:45:30.564Z,67.6
2017-10-04T09:46:31.973Z,68.2
2017-10-04T09:47:53.493Z,68.3
2017-10-04T09:48:54.903Z,68.4
2017-10-04T09:50:16.400Z,67.5
2017-10-04T09:51:17.809Z,68.1
2017-10-04T09:52:39.324Z,68.0
2017-10-04T09:53:40.737Z,68.4
2017-10-04T09:55:02.235Z,67.7
2017-10-04T09:56:03.643Z,67.8
2017-10-04T09:57:25.158Z,68.5
2017-10-04T09:58:26.569Z,68.4
2017-10-04T09:59:48.066Z,68.6
2017-10-04T10:00:49.477Z,68.6
2017-10-04T10:02:10.991Z,68.4
2017-10-04T10:03:12.403Z,68.4
2017-10-04T10:04:33.899Z,68.6
2017-10-04T10:05:35.308Z,68.6
2017-10-04T10:06:56.825Z,68.6
2017-10-04T10:07:58.233Z,68.3
2017-10-04T10:09:19.734Z,67.5
2017-10-04T10:10:21.143Z,68.7
2017-10-04T10:11:42.645Z,68.6
2017-10-04T10:12:45.107Z,67.5
2017-10-04T10:14:05.737Z,68.5
2017-10-04T10:15:07.143Z,68.0
2017-10-04T10:16:28.637Z,68.1
2017-10-04T10:17:30.318Z,67.7
2017-10-04T10:18:51.689Z,67.7
2017-10-04T10:19:53.101Z,67.4
2017-10-04T10:21:14.596Z,67.4
2017-10-04T10:22:16.007Z,68.6
2017-10-04T10:23:37.523Z,67.5
2017-10-04T10:24:38.935Z,67.4
2017-10-04T10:26:00.430Z,66.9
2017-10-04T10:27:01.840Z,67.0
2017-10-04T10:28:23.360Z,67.2
2017-10-04T10:29:24.770Z,67.7
2017-10-04T10:30:46.269Z,68.4
2017-10-04T10:31:47.677Z,68.2
2017-10-04T10:33:09.201Z,69.5
2017-10-04T10:34:10.610Z,68.6
2017-10-04T10:35:32.125Z,68.2
2017-10-04T10:36:33.534Z,68.4
2017-10-04T10:37:55.035Z,68.4
2017-10-04T10:38:56.445Z,68.4
2017-10-04T10:40:17.959Z,68.6
2017-10-04T10:41:19.370Z,68.8
2017-10-04T10:42:40.865Z,68.2
2017-10-04T10:43:42.274Z,68.3
2017-10-04T10:45:03.795Z,68.6
2017-10-04T10:46:05.203Z,68.6
2017-10-04T10:47:26.698Z,68.0
2017-10-04T10:48:28.106Z,68.4
2017-10-04T10:49:49.626Z,69.0
2017-10-04T10:50:51.036Z,68.3
2017-10-04T10:52:12.535Z,68.3
2017-10-04T10:53:13.944Z,68.1
2017-10-04T10:54:35.482Z,68.3
2017-10-04T10:55:36.887Z,69.3
2017-10-04T10:56:58.382Z,68.2
2017-10-04T10:57:59.789Z,68.6
2017-10-04T10:59:21.289Z,67.4
2017-10-04T11:00:22.699Z,68.4
2017-10-04T11:01:44.213Z,66.8
2017-10-04T11:02:45.626Z,67.1
2017-10-04T11:04:07.121Z,66.7
2017-10-04T11:05:08.527Z,67.0
2017-10-04T11:06:30.046Z,66.9
2017-10-04T11:07:31.459Z,65.2
2017-10-04T11:08:52.956Z,65.0
2017-10-04T11:09:54.365Z,64.2
2017-10-04T11:11:15.883Z,65.4
2017-10-04T11:12:17.292Z,64.0
2017-10-04T11:13:38.789Z,65.6
2017-10-04T11:14:40.198Z,64.4
2017-10-04T11:16:01.716Z,63.6
2017-10-04T11:17:03.127Z,63.8
2017-10-04T11:18:24.620Z,63.8
2017-10-04T11:19:26.029Z,63.9
2017-10-04T11:20:47.547Z,64.1
2017-10-04T11:21:48.957Z,65.4
2017-10-04T11:23:10.454Z,64.8
2017-10-04T11:24:11.864Z,66.6
2017-10-04T11:25:33.361Z,65.1
2017-10-04T11:26:34.770Z,66.3
2017-10-04T11:27:56.285Z,65.6
2017-10-04T11:28:57.695Z,66.0
2017-10-04T11:30:19.189Z,65.5
2017-10-04T11:31:20.599Z,66.8
2017-10-04T11:32:42.117Z,66.6
2017-10-04T11:33:43.529Z,65.0
2017-10-04T11:35:05.026Z,65.6
2017-10-04T11:36:06.435Z,65.0
2017-10-04T11:37:27.996Z,64.2
2017-10-04T11:38:29.411Z,64.2
2017-10-04T11:39:50.912Z,64.4
2017-10-04T11:40:52.320Z,64.6
2017-10-04T11:42:13.836Z,65.5
2017-10-04T11:43:15.250Z,63.9
2017-10-04T11:44:36.748Z,64.1
2017-10-04T11:45:38.216Z,64.0
2017-10-04T11:46:59.747Z,64.5
2017-10-04T11:48:01.156Z,64.8
2017-10-04T11:49:22.663Z,65.3
2017-10-04T11:50:24.077Z,65.1
2017-10-04T11:51:45.574Z,65.2
2017-10-04T11:52:46.984Z,65.5
2017-10-04T11:54:08.500Z,65.2
2017-10-04T11:55:09.913Z,65.1
2017-10-04T11:56:31.432Z,64.6
2017-10-04T11:57:32.844Z,64.0
2017-10-04T11:58:54.363Z,63.5
2017-10-04T11:59:55.775Z,64.0
2017-10-04T12:01:17.652Z,63.2
2017-10-04T12:02:19.064Z,63.0
2017-10-04T12:03:40.584Z,62.3
2017-10-04T12:04:41.999Z,63.3
2017-10-04T12:06:03.498Z,63.4
2017-10-04T12:07:04.908Z,63.8
2017-10-04T12:08:26.427Z,63.1
2017-10-04T12:09:27.838Z,62.1
2017-10-04T12:10:49.336Z,61.0
2017-10-04T12:11:50.747Z,62.1
2017-10-04T12:13:12.243Z,63.6
2017-10-04T12:14:13.652Z,63.6
2017-10-04T12:15:35.169Z,63.0
2017-10-04T12:16:36.580Z,63.3
2017-10-04T12:17:58.076Z,63.3
2017-10-04T12:18:59.497Z,62.7
2017-10-04T12:20:21.007Z,61.1
2017-10-04T12:21:22.417Z,60.6
2017-10-04T12:22:43.914Z,61.6
2017-10-04T12:23:45.323Z,61.2
2017-10-04T12:25:06.839Z,59.9
2017-10-04T12:26:08.479Z,60.7
2017-10-04T12:27:29.985Z,61.6
2017-10-04T12:28:31.387Z,61.8
2017-10-04T12:29:52.904Z,61.8
2017-10-04T12:30:54.315Z,62.0
2017-10-04T12:32:15.813Z,61.9
2017-10-04T12:33:17.221Z,62.0
2017-10-04T12:34:38.740Z,62.3
2017-10-04T12:35:40.151Z,62.4
2017-10-04T12:37:01.648Z,62.9
2017-10-04T12:38:03.057Z,61.6
2017-10-04T12:39:24.587Z,61.9
2017-10-04T12:40:25.998Z,62.7
2017-10-04T12:41:47.495Z,62.9
2017-10-04T12:42:48.904Z,62.1
2017-10-04T12:44:10.406Z,62.7
2017-10-04T12:45:11.820Z,61.8
2017-10-04T12:46:33.336Z,62.2
2017-10-04T12:47:34.747Z,62.5
2017-10-04T12:48:56.243Z,64.0
2017-10-04T12:49:57.652Z,64.0
2017-10-04T12:51:19.169Z,63.6
2017-10-04T12:52:20.593Z,64.0
2017-10-04T12:53:42.073Z,63.6
2017-10-04T12:54:43.483Z,63.3
2017-10-04T12:56:04.999Z,64.0
2017-10-04T12:57:06.410Z,63.3
2017-10-04T12:58:27.909Z,64.1
2017-10-04T12:59:29.317Z,64.3
2017-10-04T13:00:50.834Z,64.1
2017-10-04T13:01:52.245Z,65.2
2017-10-04T13:03:13.739Z,64.2
2017-10-04T13:04:15.147Z,63.8
2017-10-04T13:05:36.686Z,64.3
2017-10-04T13:06:38.095Z,63.4
2017-10-04T13:07:59.597Z,63.2
2017-10-04T13:09:01.004Z,62.8
2017-10-04T13:10:22.501Z,63.3
2017-10-04T13:11:23.910Z,61.7
2017-10-04T13:12:45.427Z,62.9
2017-10-04T13:13:46.841Z,62.7
2017-10-04T13:15:08.346Z,62.1
2017-10-04T13:16:09.752Z,62.0
2017-10-04T13:17:31.271Z,62.2
2017-10-04T13:18:32.682Z,62.1
2017-10-04T13:19:54.176Z,61.7
2017-10-04T13:20:55.585Z,62.1
2017-10-04T13:22:17.120Z,61.8
2017-10-04T13:23:18.551Z,62.0
2017-10-04T13:24:40.051Z,62.0
2017-10-04T13:25:41.460Z,61.9
2017-10-04T13:27:02.987Z,61.9
2017-10-04T13:28:04.394Z,62.3
2017-10-04T13:29:25.895Z,61.9
2017-10-04T13:30:27.304Z,62.1
2017-10-04T13:31:48.799Z,62.0
2017-10-04T13:32:50.207Z,61.8
2017-10-04T13:34:11.727Z,61.7
2017-10-04T13:35:13.136Z,61.7
2017-10-04T13:36:34.629Z,62.3
2017-10-04T13:37:36.042Z,61.8
2017-10-04T13:38:57.564Z,62.6
2017-10-04T13:39:58.972Z,62.8
2017-10-04T13:41:20.473Z,62.3
2017-10-04T13:42:21.881Z,62.3
2017-10-04T13:43:43.398Z,63.1
2017-10-04T13:44:44.809Z,63.2
2017-10-04T13:46:06.305Z,63.0
2017-10-04T13:47:07.713Z,63.4
2017-10-04T13:48:29.227Z,63.5
2017-10-04T13:49:30.639Z,63.2
2017-10-04T13:50:52.132Z,63.1
2017-10-04T13:51:53.541Z,63.5
2017-10-04T13:53:15.221Z,63.1
2017-10-04T13:54:16.640Z,64.0
2017-10-04T13:55:38.135Z,63.8
2017-10-04T13:56:39.545Z,62.9
2017-10-04T13:58:01.082Z,63.4
2017-10-04T13:59:02.485Z,64.0
2017-10-04T14:00:23.997Z,63.9
2017-10-04T14:01:25.390Z,63.7
2017-10-04T14:02:46.885Z,63.5
2017-10-04T14:03:48.294Z,64.1
2017-10-04T14:05:09.812Z,63.8
2017-10-04T14:06:11.222Z,63.6
2017-10-04T14:07:32.715Z,64.0
2017-10-04T14:08:34.193Z,63.5
2017-10-04T14:09:55.774Z,63.3
2017-10-04T14:10:57.182Z,63.9
2017-10-04T14:12:18.737Z,63.4
2017-10-04T14:13:20.218Z,63.8
2017-10-04T14:14:41.833Z,63.4
2017-10-04T14:15:43.243Z,63.0
2017-10-04T14:17:04.752Z,63.2
2017-10-04T14:18:06.194Z,63.4
2017-10-04T14:19:27.834Z,63.5
2017-10-04T14:20:29.362Z,63.1
2017-10-04T14:21:50.883Z,63.4
2017-10-04T14:22:52.300Z,63.7
2017-10-04T14:24:13.941Z,64.0
2017-10-04T14:25:15.437Z,64.0
2017-10-04T14:26:37.008Z,64.3
2017-10-04T14:27:38.475Z,64.1
2017-10-04T14:29:00.002Z,64.2
2017-10-04T14:30:01.419Z,64.3
2017-10-04T14:31:23.013Z,63.9
2017-10-04T14:32:24.499Z,64.5
2017-10-04T14:33:46.003Z,64.8
2017-10-04T14:34:47.409Z,65.3
2017-10-04T14:36:08.949Z,65.1
2017-10-04T14:37:10.487Z,65.1
2017-10-04T14:38:32.115Z,65.5
2017-10-04T14:39:33.516Z,65.2
2017-10-04T14:40:55.210Z,65.1
2017-10-04T14:41:56.838Z,65.1
2017-10-04T14:43:18.563Z,65.1
2017-10-04T14:44:20.285Z,65.9
2017-10-04T14:45:41.860Z,65.0
2017-10-04T14:46:43.278Z,64.9
2017-10-04T14:48:04.852Z,65.4
2017-10-04T14:49:06.343Z,65.1
2017-10-04T14:50:27.886Z,65.8
2017-10-04T14:51:29.301Z,66.0
2017-10-04T14:52:50.917Z,65.3
2017-10-04T14:53:52.470Z,65.4
2017-10-04T14:55:13.937Z,65.6
2017-10-04T14:56:15.691Z,66.0
2017-10-04T14:57:37.237Z,65.7
2017-10-04T14:58:38.644Z,66.6
2017-10-04T15:00:00.140Z,65.6
2017-10-04T15:01:01.727Z,66.7
2017-10-04T15:02:23.382Z,66.0
2017-10-04T15:03:25.029Z,66.0
2017-10-04T15:04:46.525Z,66.7
2017-10-04T15:05:47.939Z,66.3
2017-10-04T15:07:09.442Z,65.3
2017-10-04T15:08:11.060Z,65.6
2017-10-04T15:09:32.775Z,65.6
2017-10-04T15:10:34.180Z,66.0
2017-10-04T15:11:55.679Z,65.5
2017-10-04T15:12:57.085Z,65.8
2017-10-04T15:14:18.601Z,65.8
2017-10-04T15:15:20.012Z,66.4
2017-10-04T15:16:41.857Z,66.4
2017-10-04T15:17:43.273Z,66.5
2017-10-04T15:19:04.801Z,66.2
2017-10-04T15:20:06.215Z,66.7
2017-10-04T15:21:27.711Z,66.5
2017-10-04T15:22:29.152Z,66.8
2017-10-04T15:23:50.916Z,66.6
2017-10-04T15:24:52.336Z,66.8
2017-10-04T15:26:13.834Z,66.7
2017-10-04T15:27:15.241Z,65.8
2017-10-04T15:28:36.754Z,65.9
2017-10-04T15:29:38.169Z,65.8
2017-10-04T15:30:59.656Z,66.4
2017-10-04T15:32:01.057Z,66.0
2017-10-04T15:33:22.582Z,66.7
2017-10-04T15:34:23.990Z,66.6
2017-10-04T15:35:45.483Z,66.4
2017-10-04T15:36:46.888Z,66.3
2017-10-04T15:38:08.447Z,66.6
2017-10-04T15:39:09.862Z,66.2
2017-10-04T15:40:31.429Z,66.8
2017-10-04T15:41:32.899Z,66.6
2017-10-04T15:42:54.430Z,66.8
2017-10-04T15:43:55.877Z,67.3
2017-10-04T15:45:17.504Z,67.3
2017-10-04T15:46:19.187Z,67.0
2017-10-04T15:47:40.960Z,67.1
2017-10-04T15:48:42.492Z,67.6
2017-10-04T15:50:04.705Z,67.2
2017-10-04T15:51:06.134Z,67.0